Time;durP1;ratioP1;P1;durP2;ratioP2;P2;SDS_P1;SDS_P2;PMS_P1;PMS_P2;Temp;Humidity;BMP_temperature;BMP_pressure;BME280_temperature;BME280_humidity;BME280_pressure;Samples;Min_cycle;Max_cycle;Signal;HPM_P1;HPM_P2
2024/03/23 00:11:21;;;;;;;;;;;;;;;;;;;;;
2024/03/23 00:24:29;;;;;;;16.00;9.80;;;;;;;10.80;78.77;99579.95;127142;1270;113791;-65
2024/03/23 00:32:30;;;;;;;;;;;;;;;;;;;;;
2024/03/23 00:45:07;;;;;;;;;;;;;;;;;;;;;
2024/03/23 00:53:38;;;;;;;;;;;;;;;;;;;;;
2024/03/23 01:11:04;;;;;;;;;;;;;;;;;;;;;
2024/03/23 01:19:33;;;;;;;;;;;;;;;;;;;;;
2024/03/23 01:55:41;;;;;;;;;;;;;;;;;;;;;
2024/03/23 02:04:21;;;;;;;17.60;10.20;;;;;;;9.93;80.59;99422.10;124488;1291;113745;-66
2024/03/23 02:21:21;;;;;;;;;;;;;;;;;;;;;
2024/03/23 02:29:51;;;;;;;13.70;8.40;;;;;;;9.89;81.53;99392.71;126258;1270;115996;-65
2024/03/23 02:38:05;;;;;;;16.80;8.70;;;;;;;9.88;81.73;99374.58;126313;1298;114504;-66
2024/03/23 02:41:24;;;;;;;;;;;;;;;;;;;;;
2024/03/23 02:44:40;;;;;;;14.30;8.50;;;;;;;9.91;81.62;99376.92;125756;1300;115454;-66
2024/03/23 02:48:45;;;;;;;15.50;9.30;;;;;;;9.90;81.87;99371.08;126504;1283;113587;-65
2024/03/23 02:52:41;;;;;;;14.70;8.70;;;;;;;9.89;81.90;99369.00;125791;1276;113725;-65
2024/03/23 02:56:19;;;;;;;;;;;;;;;;;;;;;
2024/03/23 03:04:00;;;;;;;19.50;10.90;;;;;;;9.85;81.76;99348.20;126062;1277;113724;-65
2024/03/23 03:12:28;;;;;;;17.20;10.70;;;;;;;9.85;82.19;99338.58;126305;1285;114519;-66
2024/03/23 03:20:53;;;;;;;17.80;10.40;;;;;;;9.87;82.46;99333.98;127206;1272;128592;-65
2024/03/23 03:24:42;;;;;;;;;;;;;;;;;;;;;
2024/03/23 03:28:21;;;;;;;18.00;10.90;;;;;;;9.91;82.37;99323.20;127434;1263;113663;-65
2024/03/23 03:32:25;;;;;;;;;;;;;;;;;;;;;
2024/03/23 03:36:16;;;;;;;15.00;9.70;;;;;;;9.92;82.52;99312.10;128053;1257;113593;-65
2024/03/23 03:40:15;;;;;;;16.80;9.70;;;;;;;9.91;82.80;99311.45;128298;1276;128609;-64
2024/03/23 03:43:55;;;;;;;14.30;9.70;;;;;;;9.91;82.91;99298.44;128121;1262;114429;-64
2024/03/23 03:47:38;;;;;;;17.40;10.60;;;;;;;9.92;82.96;99296.60;128625;1254;113534;-65
2024/03/23 03:55:52;;;;;;;15.80;9.70;;;;;;;9.90;82.97;99292.77;127931;1271;114916;-64
2024/03/23 03:59:21;;;;;;;;;;;;;;;;;;;;;
2024/03/23 04:03:13;;;;;;;16.60;10.20;;;;;;;9.89;82.91;99291.23;128220;1259;113905;-64
2024/03/23 04:07:04;;;;;;;16.00;10.60;;;;;;;9.86;82.83;99281.98;127549;1265;115443;-64
2024/03/23 04:20:10;;;;;;;15.20;9.70;;;;;;;9.83;83.25;99274.85;126420;1276;129679;-65
2024/03/23 04:24:04;;;;;;;15.40;9.00;;;;;;;9.80;83.20;99280.71;125803;1305;116772;-65
2024/03/23 04:31:57;;;;;;;16.10;9.10;;;;;;;9.73;83.36;99281.15;125779;1282;113691;-65
2024/03/23 04:35:51;;;;;;;16.30;8.80;;;;;;;9.69;83.22;99279.30;125655;1282;114596;-65
2024/03/23 04:39:14;;;;;;;14.10;8.50;;;;;;;9.64;83.43;99275.11;125559;1305;129758;-64
2024/03/23 04:42:42;;;;;;;15.30;9.60;;;;;;;9.63;83.50;99278.24;125581;1279;114394;-64
2024/03/23 04:50:54;;;;;;;16.00;9.80;;;;;;;9.61;83.64;99271.75;127291;1269;114760;-65
2024/03/23 05:02:33;;;;;;;14.80;9.40;;;;;;;9.53;83.52;99257.62;127014;1271;114301;-65
2024/03/23 05:06:07;;;;;;;14.20;8.60;;;;;;;9.50;83.57;99256.39;127531;1265;113651;-65
2024/03/23 05:09:52;;;;;;;;;;;;;;;;;;;;;
2024/03/23 05:18:37;;;;;;;;;;;;;;;;;;;;;
2024/03/23 05:22:30;;;;;;;;;;;;;;;;;;;;;
2024/03/23 05:26:34;;;;;;;;;;;;;;;;;;;;;
2024/03/23 05:39:40;;;;;;;16.20;9.70;;;;;;;9.44;84.04;99225.91;126461;1276;128841;-64
2024/03/23 05:48:20;;;;;;;;;;;;;;;;;;;;;
2024/03/23 05:51:34;;;;;;;17.70;9.80;;;;;;;9.71;84.79;99213.70;122171;1303;113584;-65
2024/03/23 05:59:26;;;;;;;15.90;9.50;;;;;;;9.99;84.67;99204.64;126084;1280;113640;-65
2024/03/23 06:08:07;;;;;;;;;;;;;;;;;;;;;
2024/03/23 06:16:42;;;;;;;17.40;9.30;;;;;;;10.68;84.53;99187.27;125212;1283;116401;-65
2024/03/23 06:20:39;;;;;;;15.20;9.30;;;;;;;10.86;84.57;99196.77;125735;1289;115417;-65
2024/03/23 06:24:35;;;;;;;12.80;8.70;;;;;;;11.07;84.72;99200.30;125340;1286;129611;-66
2024/03/23 06:28:21;;;;;;;;;;;;;;;;;;;;;
2024/03/23 06:31:46;;;;;;;21.10;12.10;;;;;;;11.37;84.32;99223.98;125792;1280;114782;-65
2024/03/23 06:45:01;;;;;;;21.20;13.60;;;;;;;11.42;83.77;99168.95;126846;1272;128579;-65
2024/03/23 06:53:12;;;;;;;;;;;;;;;;;;;;;
2024/03/23 06:57:08;;;;;;;;;;;;;;;;;;;;;
2024/03/23 07:00:22;;;;;;;16.30;11.10;;;;;;;11.79;83.00;99131.61;125502;1283;115682;-65
2024/03/23 07:04:18;;;;;;;15.50;10.00;;;;;;;11.98;82.92;99135.04;125619;1286;129517;-65
2024/03/23 07:07:58;;;;;;;;;;;;;;;;;;;;;
2024/03/23 07:20:59;;;;;;;15.20;9.50;;;;;;;13.60;81.08;99091.38;125371;1307;114847;-66
2024/03/23 07:24:52;;;;;;;13.10;7.70;;;;;;;13.95;80.38;99077.23;125613;1286;129072;-66
2024/03/23 07:28:35;;;;;;;;;;;;;;;;;;;;;
2024/03/23 07:32:26;;;;;;;13.40;8.70;;;;;;;14.64;79.82;99059.17;125744;1285;114751;-65
2024/03/23 07:41:14;;;;;;;12.90;8.60;;;;;;;15.51;78.47;99046.03;126857;1278;113554;-66
2024/03/23 07:44:43;;;;;;;;;;;;;;;;;;;;;
2024/03/23 07:53:07;;;;;;;10.30;7.20;;;;;;;16.52;75.34;99024.36;125300;1309;114787;-66
2024/03/23 08:05:13;;;;;;;10.50;7.60;;;;;;;17.66;72.48;98975.64;124869;1292;128505;-66
2024/03/23 08:09:00;;;;;;;;;;;;;;;;;;;;;
2024/03/23 08:17:16;;;;;;;;;;;;;;;;;;;;;
2024/03/23 08:30:18;;;;;;;8.80;6.60;;;;;;;17.88;68.00;98953.02;124911;1294;115298;-65
2024/03/23 08:33:47;;;;;;;;;;;;;;;;;;;;;
2024/03/23 08:42:08;;;;;;;7.90;6.10;;;;;;;18.80;66.89;98905.61;125561;1282;113693;-66
2024/03/23 08:45:57;;;;;;;9.10;5.90;;;;;;;19.15;66.41;98895.36;125286;1290;130064;-65
2024/03/23 08:49:40;;;;;;;;;;;;;;;;;;;;;
2024/03/23 08:57:35;;;;;;;7.90;6.50;;;;;;;19.61;62.48;98864.77;127393;1266;115115;-65
2024/03/23 09:00:41;;;;;;;9.70;6.70;;;;;;;19.36;62.04;98860.09;127879;1265;113724;-63
2024/03/23 09:08:47;;;;;;;8.40;6.10;;;;;;;19.00;61.49;98858.64;127795;1268;117020;-63
2024/03/23 09:12:04;;;;;;;8.90;7.10;;;;;;;18.83;61.00;98850.80;127587;1268;113528;-63
2024/03/23 09:24:36;;;;;;;;;;;;;;;;;;;;;
2024/03/23 09:32:20;;;;;;;9.70;6.00;;;;;;;17.35;60.36;98809.17;127523;1267;113617;-63
2024/03/23 09:35:40;;;;;;;;;;;;;;;;;;;;;
2024/03/23 09:43:16;;;;;;;10.00;7.10;;;;;;;16.86;60.56;98786.66;127165;1281;128443;-61
2024/03/23 09:46:25;;;;;;;9.40;6.90;;;;;;;16.77;60.50;98780.35;127207;1274;114756;-62
2024/03/23 09:49:36;;;;;;;8.70;6.10;;;;;;;16.58;60.45;98763.48;127191;1274;113616;-61
2024/03/23 09:52:44;;;;;;;9.10;6.30;;;;;;;16.50;60.68;98754.92;127270;1272;113834;-62
2024/03/23 09:55:49;;;;;;;9.00;6.10;;;;;;;16.56;60.78;98749.79;127788;1263;113716;-61
2024/03/23 09:59:05;;;;;;;10.40;6.30;;;;;;;16.62;61.09;98739.55;127946;1273;128968;-62
2024/03/23 10:02:16;;;;;;;7.90;6.40;;;;;;;16.67;61.15;98737.05;128332;1262;114943;-62
2024/03/23 10:05:32;;;;;;;7.40;5.70;;;;;;;16.66;61.34;98730.75;128030;1268;113526;-64
2024/03/23 10:13:03;;;;;;;;;;;;;;;16.89;61.23;98704.92;128388;1267;114896;-62
2024/03/23 10:16:18;;;;;;;6.70;5.60;;;;;;;17.04;61.21;98699.44;128455;1261;127891;-62
2024/03/23 10:19:33;;;;;;;8.00;5.40;;;;;;;17.23;61.15;98696.79;128583;1260;114700;-62
2024/03/23 10:22:51;;;;;;;;;;;;;;;;;;;;;
2024/03/23 10:26:18;;;;;;;7.90;5.30;;;;;;;17.69;61.11;98684.42;128629;1254;113524;-62
2024/03/23 10:29:28;;;;;;;6.90;5.50;;;;;;;18.19;61.01;98684.77;128709;1260;113794;-62
2024/03/23 10:32:38;;;;;;;7.30;5.50;;;;;;;18.54;59.92;98685.70;128643;1260;128914;-62
2024/03/23 10:35:44;;;;;;;8.50;5.60;;;;;;;18.75;59.83;98683.83;128802;1255;114793;-62
2024/03/23 10:38:59;;;;;;;7.60;6.10;;;;;;;19.08;59.64;98684.20;128836;1259;113948;-62
2024/03/23 10:42:16;;;;;;;8.90;6.30;;;;;;;19.35;58.93;98677.50;128818;1259;113466;-62
2024/03/23 10:45:23;;;;;;;7.60;5.70;;;;;;;19.62;59.03;98675.46;128783;1260;113942;-62
2024/03/23 10:48:32;;;;;;;8.70;5.10;;;;;;;19.89;58.68;98655.70;128656;1260;128975;-62
2024/03/23 10:51:52;;;;;;;;;;;;;;;;;;;;;
2024/03/23 10:55:09;;;;;;;6.80;5.10;;;;;;;20.37;58.40;98650.78;128820;1259;113481;-61
2024/03/23 10:58:15;;;;;;;8.40;5.90;;;;;;;20.54;57.80;98646.77;128484;1259;114662;-62
2024/03/23 11:01:21;;;;;;;7.20;5.20;;;;;;;20.66;57.53;98641.39;128711;1260;113988;-62
2024/03/23 11:04:42;;;;;;;7.10;4.90;;;;;;;20.72;57.19;98634.13;128633;1258;128724;-61
2024/03/23 11:07:52;;;;;;;7.90;5.40;;;;;;;20.76;56.77;98618.83;128603;1257;113539;-61
2024/03/23 11:11:33;;;;;;;;;;;;;;;;;;;;;
2024/03/23 11:14:58;;;;;;;;;;;;;;;;;;;;;
2024/03/23 11:18:12;;;;;;;8.30;6.30;;;;;;;20.90;56.17;98600.62;128622;1254;113477;-61
2024/03/23 11:21:53;;;;;;;8.30;5.70;;;;;;;21.01;55.82;98596.63;128568;1254;128879;-62
2024/03/23 11:24:58;;;;;;;7.50;6.10;;;;;;;21.10;55.64;98589.01;128416;1263;115474;-61
2024/03/23 11:28:22;;;;;;;10.00;5.90;;;;;;;21.15;55.37;98582.60;128712;1256;113501;-61
2024/03/23 11:36:09;;;;;;;9.60;6.20;;;;;;;21.19;55.11;98567.40;128072;1266;113620;-61
2024/03/23 11:39:21;;;;;;;7.00;5.30;;;;;;;21.46;54.88;98565.91;127665;1266;127779;-61
2024/03/23 11:42:31;;;;;;;7.80;5.70;;;;;;;21.70;54.17;98555.73;128106;1267;114777;-62
2024/03/23 11:45:57;;;;;;;7.30;5.30;;;;;;;21.79;53.66;98553.60;128060;1270;113492;-63
2024/03/23 11:49:24;;;;;;;5.40;4.40;;;;;;;21.88;53.34;98542.66;127795;1266;113551;-62
2024/03/23 11:52:35;;;;;;;5.90;4.70;;;;;;;21.91;52.62;98535.20;127700;1270;113536;-61
2024/03/23 11:56:04;;;;;;;6.90;4.60;;;;;;;21.80;52.17;98525.52;128100;1274;128798;-61
2024/03/23 11:59:34;;;;;;;6.70;4.10;;;;;;;21.66;51.71;98521.96;128029;1266;114796;-61
2024/03/23 12:02:41;;;;;;;5.50;4.60;;;;;;;21.49;51.72;98520.65;128172;1266;113592;-61
2024/03/23 12:05:53;;;;;;;5.80;3.80;;;;;;;21.33;51.26;98523.17;128526;1264;113552;-61
2024/03/23 12:09:12;;;;;;;3.60;3.10;;;;;;;21.04;50.56;98534.94;128645;1260;113714;-61
2024/03/23 12:12:19;;;;;;;4.10;3.60;;;;;;;20.69;50.03;98546.88;128494;1263;127848;-62
2024/03/23 12:15:24;;;;;;;5.80;3.30;;;;;;;20.41;50.62;98555.83;128515;1263;114733;-62
2024/03/23 12:18:28;;;;;;;5.10;3.40;;;;;;;20.22;50.74;98561.19;128834;1257;113473;-62
2024/03/23 12:21:36;;;;;;;5.50;3.20;;;;;;;20.08;51.20;98564.45;128637;1254;113556;-62
2024/03/23 12:24:45;;;;;;;3.80;2.60;;;;;;;20.03;51.60;98560.66;128712;1254;113442;-63
2024/03/23 12:27:51;;;;;;;3.70;2.60;;;;;;;20.03;51.68;98569.32;128636;1254;127797;-62
2024/03/23 12:30:58;;;;;;;4.10;2.50;;;;;;;20.03;51.37;98574.36;128319;1258;114891;-63
2024/03/23 12:34:08;;;;;;;4.60;2.80;;;;;;;19.98;50.69;98573.21;128906;1257;113921;-62
2024/03/23 12:37:17;;;;;;;3.90;2.50;;;;;;;19.87;50.68;98580.27;128952;1254;113593;-62
2024/03/23 12:40:34;;;;;;;5.10;2.30;;;;;;;19.79;50.45;98576.27;128983;1259;113590;-63
2024/03/23 12:43:43;;;;;;;4.60;2.50;;;;;;;19.71;50.42;98569.70;128738;1260;127232;-61
2024/03/23 12:46:55;;;;;;;20.60;13.00;;;;;;;19.67;50.19;98568.41;128790;1257;115521;-61
2024/03/23 12:50:05;;;;;;;5.70;3.30;;;;;;;19.54;49.92;98551.29;128912;1258;113620;-61
2024/03/23 12:53:27;;;;;;;4.60;2.80;;;;;;;19.49;50.23;98563.57;128851;1257;113884;-64
2024/03/23 12:57:00;;;;;;;;;;;;;;;;;;;;;
2024/03/23 13:00:12;;;;;;;3.00;2.30;;;;;;;19.19;49.59;98573.14;128260;1268;128702;-62
2024/03/23 13:03:22;;;;;;;6.30;3.10;;;;;;;19.02;49.77;98579.73;128613;1257;114882;-63
2024/03/23 13:06:35;;;;;;;2.70;2.40;;;;;;;18.86;49.66;98593.11;128630;1257;113601;-62
2024/03/23 13:09:44;;;;;;;3.70;2.80;;;;;;;18.65;49.62;98610.26;128623;1258;113533;-61
2024/03/23 13:12:53;;;;;;;4.80;3.10;;;;;;;18.47;50.41;98628.60;128251;1254;113449;-62
2024/03/23 13:16:05;;;;;;;5.80;3.30;;;;;;;18.33;50.74;98664.06;128249;1257;127768;-63
2024/03/23 13:19:14;;;;;;;3.80;2.30;;;;;;;18.11;50.83;98685.07;128721;1257;115494;-62
2024/03/23 13:22:25;;;;;;;5.30;2.80;;;;;;;17.84;50.59;98699.16;128420;1254;113671;-64
2024/03/23 13:25:44;;;;;;;4.30;3.20;;;;;;;17.47;50.45;98712.16;128816;1258;113566;-61
2024/03/23 13:29:15;;;;;;;6.90;3.20;;;;;;;17.03;50.82;98721.19;128186;1254;113604;-62
2024/03/23 13:36:35;;;;;;;5.30;3.60;;;;;;;16.05;53.14;98721.80;128374;1260;114697;-62
2024/03/23 13:39:41;;;;;;;5.20;3.50;;;;;;;15.74;53.84;98735.59;128418;1258;113489;-62
2024/03/23 13:42:52;;;;;;;4.30;3.30;;;;;;;15.40;53.91;98747.07;128892;1254;113411;-62
2024/03/23 13:46:02;;;;;;;4.20;2.80;;;;;;;15.10;53.82;98762.47;128879;1257;114319;-61
2024/03/23 13:49:27;;;;;;;4.70;3.40;;;;;;;14.91;54.36;98764.39;128791;1257;128634;-61
2024/03/23 13:52:50;;;;;;;4.10;3.10;;;;;;;14.91;54.72;98762.77;128701;1257;116063;-62
2024/03/23 13:56:00;;;;;;;3.70;2.50;;;;;;;15.02;55.07;98778.28;128550;1258;113488;-61
2024/03/23 13:59:08;;;;;;;3.00;2.00;;;;;;;15.08;54.66;98795.79;128740;1254;113550;-63
2024/03/23 14:02:20;;;;;;;3.60;2.30;;;;;;;15.06;54.25;98805.64;128886;1254;113462;-61
2024/03/23 14:05:25;;;;;;;4.00;2.30;;;;;;;14.99;53.88;98827.86;128823;1254;128934;-62
2024/03/23 14:08:33;;;;;;;3.00;1.90;;;;;;;14.77;54.08;98835.80;128916;1254;115657;-61
2024/03/23 14:11:43;;;;;;;3.90;1.80;;;;;;;14.60;54.40;98840.70;128886;1254;113830;-62
2024/03/23 14:14:52;;;;;;;2.20;1.30;;;;;;;14.36;54.14;98848.75;128976;1254;113539;-62
2024/03/23 14:17:59;;;;;;;2.20;1.50;;;;;;;13.99;54.37;98886.80;129039;1254;113594;-62
2024/03/23 14:21:05;;;;;;;2.40;1.10;;;;;;;13.53;54.68;98913.83;128892;1254;128724;-62
2024/03/23 14:24:12;;;;;;;3.90;1.00;;;;;;;13.16;55.06;98937.70;128865;1253;114812;-62
2024/03/23 14:27:18;;;;;;;1.90;1.40;;;;;;;12.83;55.91;98964.90;128587;1252;113555;-63
2024/03/23 14:30:24;;;;;;;1.30;0.70;;;;;;;12.51;56.09;98990.15;128792;1254;113633;-62
2024/03/23 14:33:35;;;;;;;1.70;0.50;;;;;;;12.17;56.40;98990.79;128813;1254;113884;-61
2024/03/23 14:36:43;;;;;;;1.60;0.70;;;;;;;11.91;56.79;99008.73;128500;1254;128707;-61
2024/03/23 14:40:02;;;;;;;2.00;1.30;;;;;;;11.67;57.16;99013.70;128650;1254;114739;-61
2024/03/23 14:43:09;;;;;;;1.00;0.60;;;;;;;11.44;57.42;99029.88;131214;1257;113515;-63
2024/03/23 14:46:20;;;;;;;1.80;0.90;;;;;;;11.16;57.68;99035.27;128995;1255;113552;-62
2024/03/23 14:49:35;;;;;;;1.30;0.80;;;;;;;10.96;58.38;99039.23;128835;1257;113476;-63
2024/03/23 14:52:46;;;;;;;0.90;0.70;;;;;;;10.72;58.21;99046.99;128547;1252;128392;-60
2024/03/23 14:55:52;;;;;;;0.90;0.60;;;;;;;10.55;58.59;99052.11;128742;1257;115897;-60
2024/03/23 14:59:00;;;;;;;1.20;0.80;;;;;;;10.42;58.42;99059.55;128780;1258;113546;-61
2024/03/23 15:02:12;;;;;;;1.00;0.60;;;;;;;10.22;58.62;99075.52;128986;1253;113903;-60
2024/03/23 15:05:21;;;;;;;1.20;0.70;;;;;;;10.18;58.87;99081.52;129045;1254;114031;-62
2024/03/23 15:08:30;;;;;;;1.20;0.80;;;;;;;10.15;58.81;99082.23;128820;1257;128895;-61
2024/03/23 15:11:36;;;;;;;0.80;0.50;;;;;;;10.14;58.92;99090.54;129041;1253;114720;-61
2024/03/23 15:14:45;;;;;;;1.80;0.70;;;;;;;10.09;58.85;99083.22;129104;1257;114958;-61
2024/03/23 15:18:03;;;;;;;0.90;0.40;;;;;;;9.99;59.10;99086.88;129363;1254;113500;-62
2024/03/23 15:21:19;;;;;;;1.10;0.50;;;;;;;9.90;59.24;99097.66;129472;1254;113550;-61
2024/03/23 15:24:25;;;;;;;0.90;0.50;;;;;;;9.74;59.31;99097.86;129344;1256;126965;-62
2024/03/23 15:27:33;;;;;;;2.00;1.00;;;;;;;9.52;59.46;99103.66;129071;1254;114683;-63
2024/03/23 15:30:44;;;;;;;1.80;0.90;;;;;;;9.36;59.56;99109.48;129209;1253;113511;-63
2024/03/23 15:33:57;;;;;;;3.00;1.00;;;;;;;9.19;60.14;99111.69;129212;1256;113546;-60
2024/03/23 15:37:16;;;;;;;2.00;1.20;;;;;;;9.05;60.26;99128.54;129410;1254;113583;-62
2024/03/23 15:40:21;;;;;;;4.50;1.60;;;;;;;8.92;60.40;99147.69;128891;1254;127883;-62
2024/03/23 15:43:26;;;;;;;2.60;1.20;;;;;;;8.83;60.79;99150.92;129389;1254;114789;-61
2024/03/23 15:46:44;;;;;;;3.00;1.40;;;;;;;8.73;60.49;99174.82;129356;1254;113493;-63
2024/03/23 15:49:49;;;;;;;2.90;1.80;;;;;;;8.60;60.80;99197.29;129213;1257;114492;-61
2024/03/23 15:52:57;;;;;;;2.50;1.60;;;;;;;8.50;61.11;99195.94;128930;1259;113508;-62
2024/03/23 15:56:06;;;;;;;2.80;1.10;;;;;;;8.42;61.24;99199.08;129193;1253;126874;-62
2024/03/23 15:59:13;;;;;;;2.80;1.30;;;;;;;8.33;61.49;99206.64;128755;1264;114830;-62
2024/03/23 16:02:20;;;;;;;1.70;0.80;;;;;;;8.25;61.62;99209.45;129521;1256;114290;-61
2024/03/23 16:05:31;;;;;;;1.20;0.70;;;;;;;8.18;61.37;99221.38;129362;1253;114706;-61
2024/03/23 16:08:40;;;;;;;2.10;1.40;;;;;;;8.14;61.63;99230.35;129392;1256;114725;-61
2024/03/23 16:11:49;;;;;;;1.60;0.90;;;;;;;8.11;61.83;99244.41;128876;1256;128967;-60
2024/03/23 16:15:01;;;;;;;1.80;0.90;;;;;;;8.07;61.93;99240.01;129203;1254;115289;-61
2024/03/23 16:18:06;;;;;;;2.10;1.30;;;;;;;8.08;62.07;99239.40;129216;1257;114700;-62
2024/03/23 16:21:11;;;;;;;1.20;1.00;;;;;;;8.07;61.86;99247.79;129313;1256;113806;-62
2024/03/23 16:24:15;;;;;;;2.10;0.80;;;;;;;8.04;62.15;99250.98;129077;1257;113869;-59
2024/03/23 16:27:23;;;;;;;1.50;0.80;;;;;;;8.01;62.24;99242.46;129044;1254;128647;-60
2024/03/23 16:30:33;;;;;;;1.50;0.80;;;;;;;7.98;62.21;99242.45;128474;1257;114737;-61
2024/03/23 16:33:39;;;;;;;1.30;0.80;;;;;;;7.94;61.80;99244.30;128875;1253;113458;-60
2024/03/23 16:36:45;;;;;;;1.50;0.70;;;;;;;7.91;62.03;99248.33;128909;1256;113871;-61
2024/03/23 16:39:55;;;;;;;1.30;0.60;;;;;;;7.87;62.00;99249.09;128754;1260;114688;-62
2024/03/23 16:43:07;;;;;;;2.30;1.20;;;;;;;7.80;61.97;99224.61;128849;1254;127964;-61
2024/03/23 16:46:16;;;;;;;2.30;1.00;;;;;;;7.75;61.91;99213.86;128869;1256;115247;-62
2024/03/23 16:49:23;;;;;;;3.40;1.40;;;;;;;7.70;62.17;99225.46;128914;1253;113878;-62
2024/03/23 16:52:31;;;;;;;2.20;1.10;;;;;;;7.68;62.30;99239.64;128950;1253;114262;-62
2024/03/23 16:55:40;;;;;;;3.20;1.70;;;;;;;7.66;61.92;99245.62;129076;1255;113484;-62
2024/03/23 16:58:57;;;;;;;3.70;1.90;;;;;;;7.65;62.33;99249.77;129002;1254;127414;-61
2024/03/23 17:02:08;;;;;;;2.70;1.80;;;;;;;7.65;62.32;99252.23;129335;1253;114717;-61
2024/03/23 17:05:23;;;;;;;3.80;1.70;;;;;;;7.64;62.64;99253.73;129380;1257;113551;-61
2024/03/23 17:08:28;;;;;;;1.90;1.00;;;;;;;7.61;62.59;99258.13;129260;1253;113439;-60
2024/03/23 17:11:34;;;;;;;2.70;1.90;;;;;;;7.58;62.95;99268.25;129169;1258;113584;-61
2024/03/23 17:14:47;;;;;;;2.10;1.60;;;;;;;7.55;62.52;99291.50;129048;1259;129001;-61
2024/03/23 17:17:53;;;;;;;4.30;2.50;;;;;;;7.54;62.72;99291.56;128906;1254;114791;-61
2024/03/23 17:20:59;;;;;;;4.00;2.00;;;;;;;7.52;62.61;99288.27;128586;1254;113663;-61
2024/03/23 17:24:08;;;;;;;2.30;1.50;;;;;;;7.48;62.86;99298.48;128555;1257;113666;-62
2024/03/23 17:27:20;;;;;;;3.20;2.20;;;;;;;7.42;62.62;99312.98;128370;1257;113610;-63
2024/03/23 17:30:26;;;;;;;3.90;1.70;;;;;;;7.38;62.55;99332.75;128542;1254;128974;-62
2024/03/23 17:33:38;;;;;;;3.60;1.80;;;;;;;7.33;62.86;99358.22;128844;1257;114790;-61
2024/03/23 17:36:49;;;;;;;2.60;0.80;;;;;;;7.24;62.14;99398.25;128290;1259;113665;-63
2024/03/23 17:39:56;;;;;;;3.60;2.00;;;;;;;7.15;62.04;99428.22;128042;1262;113669;-62
2024/03/23 17:43:06;;;;;;;3.60;1.60;;;;;;;7.10;62.15;99427.23;128163;1262;113700;-61
2024/03/23 17:46:14;;;;;;;3.10;1.40;;;;;;;7.09;62.32;99425.14;128218;1281;127809;-63
2024/03/23 17:49:23;;;;;;;5.10;1.70;;;;;;;7.05;62.36;99425.16;126813;1259;2092987;-61
2024/03/23 17:52:31;;;;;;;3.40;1.90;;;;;;;6.98;62.38;99430.27;128324;1259;114657;-62
2024/03/23 17:55:40;;;;;;;3.70;1.80;;;;;;;6.93;62.23;99436.73;128397;1259;113684;-61
2024/03/23 17:58:50;;;;;;;3.30;1.80;;;;;;;6.88;62.29;99448.86;128297;1259;113648;-62
2024/03/23 18:01:56;;;;;;;4.70;2.10;;;;;;;6.82;62.45;99450.75;131237;1258;127678;-63
2024/03/23 18:05:01;;;;;;;2.60;1.40;;;;;;;6.79;62.31;99446.09;128271;1258;114768;-60
2024/03/23 18:08:08;;;;;;;9.60;3.90;;;;;;;6.74;62.37;99436.40;128161;1258;113678;-59
2024/03/23 18:11:16;;;;;;;5.50;2.50;;;;;;;6.68;62.33;99427.98;128263;1257;113758;-58
2024/03/23 18:14:23;;;;;;;5.70;3.60;;;;;;;6.63;62.52;99431.42;128375;1262;113505;-58
2024/03/23 18:17:28;;;;;;;3.40;1.80;;;;;;;6.57;62.62;99441.65;128283;1258;127772;-59
2024/03/23 18:20:44;;;;;;;5.60;2.40;;;;;;;6.52;62.91;99448.77;128461;1259;114883;-59
2024/03/23 18:23:53;;;;;;;3.30;1.90;;;;;;;6.47;62.89;99461.44;128497;1254;113728;-60
2024/03/23 18:27:12;;;;;;;3.20;2.40;;;;;;;6.42;63.08;99471.25;128762;1254;113860;-59
2024/03/23 18:30:19;;;;;;;5.70;2.10;;;;;;;6.36;63.30;99462.27;128882;1257;113510;-60
2024/03/23 18:33:58;;;;;;;;;;;;;;;;;;;;;
2024/03/23 18:37:05;;;;;;;4.60;1.80;;;;;;;6.26;63.53;99461.12;128445;1264;114886;-62
2024/03/23 18:40:13;;;;;;;3.90;1.80;;;;;;;6.23;63.65;99459.48;129148;1253;113523;-62
2024/03/23 18:43:23;;;;;;;6.00;2.10;;;;;;;6.20;63.94;99452.34;128664;1257;113508;-61
2024/03/23 18:46:31;;;;;;;4.30;1.90;;;;;;;6.19;63.97;99436.80;129054;1257;113536;-61
2024/03/23 18:49:38;;;;;;;3.00;1.70;;;;;;;6.17;64.28;99431.05;128634;1262;127832;-62
2024/03/23 18:52:58;;;;;;;3.70;1.90;;;;;;;6.15;64.28;99440.55;128984;1257;114726;-62
2024/03/23 18:56:38;;;;;;;2.90;1.80;;;;;;;6.12;64.40;99446.35;128973;1257;113473;-62
2024/03/23 19:00:21;;;;;;;3.80;2.00;;;;;;;6.07;64.49;99442.50;128734;1254;114815;-61
2024/03/23 19:03:29;;;;;;;;;;;;;;;6.03;64.71;99448.52;128434;1254;113407;-61
2024/03/23 19:07:20;;;;;;;3.70;2.00;;;;;;;5.98;64.74;99445.14;128817;1254;128829;-62
2024/03/23 19:15:20;;;;;;;6.00;2.40;;;;;;;5.90;65.06;99426.69;128133;1262;114717;-60
2024/03/23 19:18:31;;;;;;;7.30;2.30;;;;;;;5.87;65.26;99415.86;128198;1261;113625;-61
2024/03/23 19:21:45;;;;;;;3.20;1.90;;;;;;;5.85;65.25;99413.46;127808;1268;113653;-62
2024/03/23 19:25:02;;;;;;;3.00;1.40;;;;;;;5.84;65.44;99418.50;127626;1266;127719;-61
2024/03/23 19:28:09;;;;;;;3.80;1.60;;;;;;;5.82;65.30;99429.20;127580;1270;114796;-61
2024/03/23 19:31:16;;;;;;;4.80;1.80;;;;;;;5.79;65.63;99421.20;127348;1266;113751;-62
2024/03/23 19:34:28;;;;;;;5.30;3.20;;;;;;;5.76;65.52;99405.70;127506;1270;113507;-61
2024/03/23 19:37:40;;;;;;;5.60;3.20;;;;;;;5.73;65.70;99402.27;127641;1270;113642;-62
2024/03/23 19:40:55;;;;;;;5.70;2.60;;;;;;;5.71;65.88;99396.72;127719;1270;128729;-62
2024/03/23 19:44:01;;;;;;;5.60;2.10;;;;;;;5.67;65.85;99394.95;127710;1265;114895;-61
2024/03/23 19:47:09;;;;;;;6.30;1.90;;;;;;;5.63;66.09;99398.30;127590;1264;113581;-62
2024/03/23 19:50:23;;;;;;;4.60;2.70;;;;;;;5.60;66.28;99397.53;127747;1257;113660;-62
2024/03/23 19:53:29;;;;;;;4.60;2.00;;;;;;;5.58;66.38;99387.90;128457;1262;113687;-62
2024/03/23 19:56:50;;;;;;;;;;;;;;;;;;;;;
2024/03/23 19:59:59;;;;;;;7.70;3.60;;;;;;;5.53;66.65;99379.27;128487;1262;115435;-61
2024/03/23 20:03:26;;;;;;;8.00;3.60;;;;;;;5.49;66.63;99368.27;128540;1254;113576;-63
2024/03/23 20:06:35;;;;;;;7.20;3.30;;;;;;;5.45;66.66;99363.13;128987;1254;113544;-62
2024/03/23 20:10:13;;;;;;;6.90;4.10;;;;;;;5.42;66.93;99367.52;128776;1253;113475;-63
2024/03/23 20:13:20;;;;;;;9.70;4.70;;;;;;;5.37;67.11;99378.00;128909;1254;128676;-62
2024/03/23 20:16:45;;;;;;;;;;;;;;;;;;;;;
2024/03/23 20:19:54;;;;;;;12.20;6.50;;;;;;;5.31;67.25;99382.50;128539;1254;113590;-62
2024/03/23 20:23:06;;;;;;;9.90;5.90;;;;;;;5.29;67.37;99386.66;129351;1257;113451;-62
2024/03/23 20:27:01;;;;;;;9.80;5.40;;;;;;;5.27;67.50;99387.81;129192;1259;114643;-63
2024/03/23 20:30:11;;;;;;;9.80;5.30;;;;;;;5.23;67.78;99381.77;128727;1253;128706;-63
2024/03/23 20:33:16;;;;;;;15.00;7.10;;;;;;;5.21;67.83;99385.05;128848;1257;114932;-66
2024/03/23 20:36:20;;;;;;;10.20;6.60;;;;;;;5.17;67.76;99380.09;128769;1257;113520;-60
2024/03/23 20:39:25;;;;;;;11.00;4.70;;;;;;;5.13;68.03;99369.63;128830;1253;113468;-60
2024/03/23 20:42:34;;;;;;;9.20;5.50;;;;;;;5.10;68.14;99365.33;128656;1257;113521;-60
2024/03/23 20:45:42;;;;;;;8.40;4.10;;;;;;;5.07;68.32;99365.65;128629;1254;128903;-61
2024/03/23 20:48:50;;;;;;;8.70;5.30;;;;;;;5.04;68.42;99363.10;128793;1257;114731;-59
2024/03/23 20:51:58;;;;;;;10.30;6.00;;;;;;;5.01;68.66;99360.21;128756;1258;113483;-60
2024/03/23 20:55:11;;;;;;;10.60;6.30;;;;;;;4.98;68.58;99355.02;128924;1254;113548;-62
2024/03/23 20:58:21;;;;;;;10.30;6.20;;;;;;;4.94;68.64;99354.14;128859;1257;113533;-60
2024/03/23 21:01:24;;;;;;;11.30;6.30;;;;;;;4.91;68.86;99361.34;128809;1254;128834;-60
2024/03/23 21:04:33;;;;;;;11.90;5.90;;;;;;;4.87;68.94;99364.88;128754;1253;114758;-61
2024/03/23 21:07:39;;;;;;;11.00;6.80;;;;;;;4.82;68.89;99363.10;128843;1253;113538;-61
2024/03/23 21:10:55;;;;;;;10.90;6.80;;;;;;;4.78;69.13;99361.02;128832;1257;113464;-62
2024/03/23 21:14:04;;;;;;;12.40;7.40;;;;;;;4.72;69.17;99355.20;128771;1258;113516;-63
2024/03/23 21:17:11;;;;;;;12.40;7.30;;;;;;;4.67;69.32;99353.30;128691;1276;128683;-62
2024/03/23 21:20:16;;;;;;;13.40;8.00;;;;;;;4.63;69.61;99352.20;128857;1257;114716;-60
2024/03/23 21:23:22;;;;;;;13.20;7.00;;;;;;;4.60;69.76;99338.92;128874;1253;113548;-60
2024/03/23 21:26:33;;;;;;;14.20;7.10;;;;;;;4.58;69.95;99343.58;128785;1253;113522;-60